<?xml version="1.0" encoding="UTF-8" standalone="no" ?>
<gpx xmlns="http://www.topografix.com/GPX/1/1" xmlns:xsi="http://www.w3.org/2001/XMLSchema-instance" xsi:schemaLocation="http://www.topografix.com/GPX/1/1 http://www.topografix.com/GPX/1/1/gpx.xsd" version="1.1" creator="VisuGPX - https://www.visugpx.com">
  <metadata>
    <name>GR20 etape 3</name>
  </metadata>
  <trk>
    <name><![CDATA[GR20 Traversée de la Corse (2020)]]></name>
    <trkseg>
      <trkpt lat="42.42596" lon="8.90098">
        <ele>1279.369</ele>
        <time>2020-03-19T16:28:24Z</time>
      </trkpt>
      <trkpt lat="42.4263" lon="8.90016">
        <ele>1265.022</ele>
        <time>2020-03-19T16:28:44Z</time>
      </trkpt>
      <trkpt lat="42.4263" lon="8.89994">
        <ele>1262.058</ele>
        <time>2020-03-19T16:29:04Z</time>
      </trkpt>
      <trkpt lat="42.42617" lon="8.89979">
        <ele>1263.417</ele>
        <time>2020-03-19T16:29:24Z</time>
      </trkpt>
      <trkpt lat="42.42604" lon="8.89981">
        <ele>1266.587</ele>
        <time>2020-03-19T16:29:44Z</time>
      </trkpt>
      <trkpt lat="42.42585" lon="8.89966">
        <ele>1261.215</ele>
        <time>2020-03-19T16:30:04Z</time>
      </trkpt>
      <trkpt lat="42.42579" lon="8.89954">
        <ele>1256.008</ele>
        <time>2020-03-19T16:30:24Z</time>
      </trkpt>
      <trkpt lat="42.42543" lon="8.89913">
        <ele>1248.955</ele>
        <time>2020-03-19T16:30:44Z</time>
      </trkpt>
      <trkpt lat="42.42528" lon="8.8991">
        <ele>1250.998</ele>
        <time>2020-03-19T16:31:04Z</time>
      </trkpt>
      <trkpt lat="42.4252" lon="8.89899">
        <ele>1248.76</ele>
        <time>2020-03-19T16:31:24Z</time>
      </trkpt>
      <trkpt lat="42.42512" lon="8.89894">
        <ele>1249.458</ele>
        <time>2020-03-19T16:31:44Z</time>
      </trkpt>
      <trkpt lat="42.42506" lon="8.89879">
        <ele>1245.482</ele>
        <time>2020-03-19T16:32:04Z</time>
      </trkpt>
      <trkpt lat="42.42484" lon="8.89849">
        <ele>1238.786</ele>
        <time>2020-03-19T16:32:24Z</time>
      </trkpt>
      <trkpt lat="42.42492" lon="8.89844">
        <ele>1236.369</ele>
        <time>2020-03-19T16:32:44Z</time>
      </trkpt>
      <trkpt lat="42.42486" lon="8.89837">
        <ele>1235.015</ele>
        <time>2020-03-19T16:33:04Z</time>
      </trkpt>
      <trkpt lat="42.42494" lon="8.89813">
        <ele>1225.885</ele>
        <time>2020-03-19T16:33:24Z</time>
      </trkpt>
      <trkpt lat="42.42456" lon="8.89807">
        <ele>1228.389</ele>
        <time>2020-03-19T16:33:44Z</time>
      </trkpt>
      <trkpt lat="42.42443" lon="8.89813">
        <ele>1231.917</ele>
        <time>2020-03-19T16:34:04Z</time>
      </trkpt>
      <trkpt lat="42.42429" lon="8.89804">
        <ele>1232.208</ele>
        <time>2020-03-19T16:34:24Z</time>
      </trkpt>
      <trkpt lat="42.42417" lon="8.89759">
        <ele>1241.152</ele>
        <time>2020-03-19T16:34:44Z</time>
      </trkpt>
      <trkpt lat="42.42407" lon="8.89764">
        <ele>1241.365</ele>
        <time>2020-03-19T16:35:04Z</time>
      </trkpt>
      <trkpt lat="42.424" lon="8.89759">
        <ele>1244.517</ele>
        <time>2020-03-19T16:35:24Z</time>
      </trkpt>
      <trkpt lat="42.42382" lon="8.89771">
        <ele>1243.495</ele>
        <time>2020-03-19T16:35:44Z</time>
      </trkpt>
      <trkpt lat="42.42382" lon="8.89762">
        <ele>1247.099</ele>
        <time>2020-03-19T16:36:04Z</time>
      </trkpt>
      <trkpt lat="42.42369" lon="8.89768">
        <ele>1247.823</ele>
        <time>2020-03-19T16:36:24Z</time>
      </trkpt>
      <trkpt lat="42.42354" lon="8.89759">
        <ele>1255.516</ele>
        <time>2020-03-19T16:36:44Z</time>
      </trkpt>
      <trkpt lat="42.42342" lon="8.89764">
        <ele>1256.362</ele>
        <time>2020-03-19T16:37:04Z</time>
      </trkpt>
      <trkpt lat="42.4234" lon="8.89786">
        <ele>1249.846</ele>
        <time>2020-03-19T16:37:24Z</time>
      </trkpt>
      <trkpt lat="42.42323" lon="8.89793">
        <ele>1256.588</ele>
        <time>2020-03-19T16:37:44Z</time>
      </trkpt>
      <trkpt lat="42.42313" lon="8.89811">
        <ele>1260.716</ele>
        <time>2020-03-19T16:38:04Z</time>
      </trkpt>
      <trkpt lat="42.42292" lon="8.89815">
        <ele>1270.508</ele>
        <time>2020-03-19T16:38:24Z</time>
      </trkpt>
      <trkpt lat="42.42281" lon="8.89836">
        <ele>1269.038</ele>
        <time>2020-03-19T16:38:44Z</time>
      </trkpt>
      <trkpt lat="42.42244" lon="8.89848">
        <ele>1273.361</ele>
        <time>2020-03-19T16:39:04Z</time>
      </trkpt>
      <trkpt lat="42.42189" lon="8.89865">
        <ele>1298.373</ele>
        <time>2020-03-19T16:39:24Z</time>
      </trkpt>
      <trkpt lat="42.42153" lon="8.89882">
        <ele>1307.851</ele>
        <time>2020-03-19T16:39:44Z</time>
      </trkpt>
      <trkpt lat="42.42144" lon="8.89885">
        <ele>1310.175</ele>
        <time>2020-03-19T16:40:04Z</time>
      </trkpt>
      <trkpt lat="42.42126" lon="8.89904">
        <ele>1318.539</ele>
        <time>2020-03-19T16:40:24Z</time>
      </trkpt>
      <trkpt lat="42.42098" lon="8.89911">
        <ele>1329.922</ele>
        <time>2020-03-19T16:40:44Z</time>
      </trkpt>
      <trkpt lat="42.42081" lon="8.89931">
        <ele>1333.018</ele>
        <time>2020-03-19T16:41:04Z</time>
      </trkpt>
      <trkpt lat="42.42067" lon="8.89927">
        <ele>1340.841</ele>
        <time>2020-03-19T16:41:24Z</time>
      </trkpt>
      <trkpt lat="42.42066" lon="8.89948">
        <ele>1338.881</ele>
        <time>2020-03-19T16:41:44Z</time>
      </trkpt>
      <trkpt lat="42.42072" lon="8.89951">
        <ele>1336.409</ele>
        <time>2020-03-19T16:42:04Z</time>
      </trkpt>
      <trkpt lat="42.42074" lon="8.89976">
        <ele>1337.508</ele>
        <time>2020-03-19T16:42:24Z</time>
      </trkpt>
      <trkpt lat="42.42062" lon="8.90005">
        <ele>1346.098</ele>
        <time>2020-03-19T16:42:44Z</time>
      </trkpt>
      <trkpt lat="42.42057" lon="8.89998">
        <ele>1346.371</ele>
        <time>2020-03-19T16:43:04Z</time>
      </trkpt>
      <trkpt lat="42.42029" lon="8.90057">
        <ele>1376.893</ele>
        <time>2020-03-19T16:43:24Z</time>
      </trkpt>
      <trkpt lat="42.42009" lon="8.90073">
        <ele>1388.361</ele>
        <time>2020-03-19T16:43:44Z</time>
      </trkpt>
      <trkpt lat="42.42004" lon="8.90086">
        <ele>1393.715</ele>
        <time>2020-03-19T16:44:04Z</time>
      </trkpt>
      <trkpt lat="42.41995" lon="8.90098">
        <ele>1400.529</ele>
        <time>2020-03-19T16:44:24Z</time>
      </trkpt>
      <trkpt lat="42.41992" lon="8.90114">
        <ele>1404.972</ele>
        <time>2020-03-19T16:44:44Z</time>
      </trkpt>
      <trkpt lat="42.41981" lon="8.90137">
        <ele>1412.448</ele>
        <time>2020-03-19T16:45:04Z</time>
      </trkpt>
      <trkpt lat="42.4197" lon="8.9017">
        <ele>1420.221</ele>
        <time>2020-03-19T16:45:24Z</time>
      </trkpt>
      <trkpt lat="42.41959" lon="8.90164">
        <ele>1429.441</ele>
        <time>2020-03-19T16:45:44Z</time>
      </trkpt>
      <trkpt lat="42.41955" lon="8.90184">
        <ele>1432.405</ele>
        <time>2020-03-19T16:46:04Z</time>
      </trkpt>
      <trkpt lat="42.41955" lon="8.90199">
        <ele>1432.008</ele>
        <time>2020-03-19T16:46:24Z</time>
      </trkpt>
      <trkpt lat="42.41948" lon="8.90215">
        <ele>1435.866</ele>
        <time>2020-03-19T16:46:44Z</time>
      </trkpt>
      <trkpt lat="42.41948" lon="8.9023">
        <ele>1436.589</ele>
        <time>2020-03-19T16:47:04Z</time>
      </trkpt>
      <trkpt lat="42.41937" lon="8.90239">
        <ele>1443.011</ele>
        <time>2020-03-19T16:47:24Z</time>
      </trkpt>
      <trkpt lat="42.41934" lon="8.90262">
        <ele>1447.199</ele>
        <time>2020-03-19T16:47:44Z</time>
      </trkpt>
      <trkpt lat="42.41925" lon="8.90263">
        <ele>1454.063</ele>
        <time>2020-03-19T16:48:04Z</time>
      </trkpt>
      <trkpt lat="42.41913" lon="8.90286">
        <ele>1465.537</ele>
        <time>2020-03-19T16:48:24Z</time>
      </trkpt>
      <trkpt lat="42.41902" lon="8.90287">
        <ele>1473.42</ele>
        <time>2020-03-19T16:48:44Z</time>
      </trkpt>
      <trkpt lat="42.41889" lon="8.90309">
        <ele>1481.466</ele>
        <time>2020-03-19T16:49:04Z</time>
      </trkpt>
      <trkpt lat="42.41881" lon="8.90306">
        <ele>1485.698</ele>
        <time>2020-03-19T16:49:24Z</time>
      </trkpt>
      <trkpt lat="42.41872" lon="8.90296">
        <ele>1491.315</ele>
        <time>2020-03-19T16:49:44Z</time>
      </trkpt>
      <trkpt lat="42.41868" lon="8.90306">
        <ele>1491.226</ele>
        <time>2020-03-19T16:50:04Z</time>
      </trkpt>
      <trkpt lat="42.41855" lon="8.90305">
        <ele>1496.308</ele>
        <time>2020-03-19T16:50:24Z</time>
      </trkpt>
      <trkpt lat="42.41848" lon="8.90299">
        <ele>1500.523</ele>
        <time>2020-03-19T16:50:44Z</time>
      </trkpt>
      <trkpt lat="42.41828" lon="8.90304">
        <ele>1506.186</ele>
        <time>2020-03-19T16:51:04Z</time>
      </trkpt>
      <trkpt lat="42.41823" lon="8.90293">
        <ele>1512.298</ele>
        <time>2020-03-19T16:51:24Z</time>
      </trkpt>
      <trkpt lat="42.4181" lon="8.90293">
        <ele>1517.856</ele>
        <time>2020-03-19T16:51:44Z</time>
      </trkpt>
      <trkpt lat="42.41809" lon="8.9028">
        <ele>1522.11</ele>
        <time>2020-03-19T16:52:04Z</time>
      </trkpt>
      <trkpt lat="42.418" lon="8.90276">
        <ele>1525.684</ele>
        <time>2020-03-19T16:52:24Z</time>
      </trkpt>
      <trkpt lat="42.41779" lon="8.90254">
        <ele>1532.447</ele>
        <time>2020-03-19T16:52:44Z</time>
      </trkpt>
      <trkpt lat="42.41765" lon="8.9025">
        <ele>1533.533</ele>
        <time>2020-03-19T16:53:04Z</time>
      </trkpt>
      <trkpt lat="42.4176" lon="8.90239">
        <ele>1535.497</ele>
        <time>2020-03-19T16:53:24Z</time>
      </trkpt>
      <trkpt lat="42.41764" lon="8.9023">
        <ele>1536.823</ele>
        <time>2020-03-19T16:53:44Z</time>
      </trkpt>
      <trkpt lat="42.41795" lon="8.90218">
        <ele>1540.625</ele>
        <time>2020-03-19T16:54:04Z</time>
      </trkpt>
      <trkpt lat="42.41792" lon="8.90208">
        <ele>1542.708</ele>
        <time>2020-03-19T16:54:24Z</time>
      </trkpt>
      <trkpt lat="42.41783" lon="8.90205">
        <ele>1542.433</ele>
        <time>2020-03-19T16:54:44Z</time>
      </trkpt>
      <trkpt lat="42.41785" lon="8.9019">
        <ele>1547.056</ele>
        <time>2020-03-19T16:55:04Z</time>
      </trkpt>
      <trkpt lat="42.41761" lon="8.90168">
        <ele>1557.718</ele>
        <time>2020-03-19T16:55:24Z</time>
      </trkpt>
      <trkpt lat="42.41753" lon="8.90144">
        <ele>1571.116</ele>
        <time>2020-03-19T16:55:44Z</time>
      </trkpt>
      <trkpt lat="42.41733" lon="8.90137">
        <ele>1579.64</ele>
        <time>2020-03-19T16:56:04Z</time>
      </trkpt>
      <trkpt lat="42.41721" lon="8.90127">
        <ele>1586.524</ele>
        <time>2020-03-19T16:56:24Z</time>
      </trkpt>
      <trkpt lat="42.41703" lon="8.90126">
        <ele>1593.887</ele>
        <time>2020-03-19T16:56:44Z</time>
      </trkpt>
      <trkpt lat="42.41692" lon="8.90128">
        <ele>1597.043</ele>
        <time>2020-03-19T16:57:04Z</time>
      </trkpt>
      <trkpt lat="42.41688" lon="8.9012">
        <ele>1602.687</ele>
        <time>2020-03-19T16:57:24Z</time>
      </trkpt>
      <trkpt lat="42.41678" lon="8.90125">
        <ele>1604.442</ele>
        <time>2020-03-19T16:57:44Z</time>
      </trkpt>
      <trkpt lat="42.41661" lon="8.90118">
        <ele>1615.526</ele>
        <time>2020-03-19T16:58:04Z</time>
      </trkpt>
      <trkpt lat="42.41638" lon="8.90131">
        <ele>1625.208</ele>
        <time>2020-03-19T16:58:24Z</time>
      </trkpt>
      <trkpt lat="42.41633" lon="8.90152">
        <ele>1622.052</ele>
        <time>2020-03-19T16:58:44Z</time>
      </trkpt>
      <trkpt lat="42.41618" lon="8.90165">
        <ele>1628.725</ele>
        <time>2020-03-19T16:59:04Z</time>
      </trkpt>
      <trkpt lat="42.41614" lon="8.90155">
        <ele>1635.367</ele>
        <time>2020-03-19T16:59:24Z</time>
      </trkpt>
      <trkpt lat="42.41589" lon="8.90174">
        <ele>1645.245</ele>
        <time>2020-03-19T16:59:44Z</time>
      </trkpt>
      <trkpt lat="42.41587" lon="8.90189">
        <ele>1641.769</ele>
        <time>2020-03-19T17:00:04Z</time>
      </trkpt>
      <trkpt lat="42.4159" lon="8.90217">
        <ele>1632.613</ele>
        <time>2020-03-19T17:00:24Z</time>
      </trkpt>
      <trkpt lat="42.41573" lon="8.90245">
        <ele>1640.316</ele>
        <time>2020-03-19T17:00:44Z</time>
      </trkpt>
      <trkpt lat="42.41573" lon="8.90259">
        <ele>1636.942</ele>
        <time>2020-03-19T17:01:04Z</time>
      </trkpt>
      <trkpt lat="42.4157" lon="8.90275">
        <ele>1635.996</ele>
        <time>2020-03-19T17:01:24Z</time>
      </trkpt>
      <trkpt lat="42.41573" lon="8.90309">
        <ele>1628.431</ele>
        <time>2020-03-19T17:01:44Z</time>
      </trkpt>
      <trkpt lat="42.41561" lon="8.90368">
        <ele>1637.324</ele>
        <time>2020-03-19T17:02:04Z</time>
      </trkpt>
      <trkpt lat="42.41574" lon="8.90387">
        <ele>1635.108</ele>
        <time>2020-03-19T17:02:24Z</time>
      </trkpt>
      <trkpt lat="42.41592" lon="8.904">
        <ele>1629.773</ele>
        <time>2020-03-19T17:02:44Z</time>
      </trkpt>
      <trkpt lat="42.41588" lon="8.90418">
        <ele>1636.056</ele>
        <time>2020-03-19T17:03:04Z</time>
      </trkpt>
      <trkpt lat="42.41561" lon="8.90428">
        <ele>1651.158</ele>
        <time>2020-03-19T17:03:24Z</time>
      </trkpt>
      <trkpt lat="42.41553" lon="8.90446">
        <ele>1659.566</ele>
        <time>2020-03-19T17:03:44Z</time>
      </trkpt>
      <trkpt lat="42.41527" lon="8.90462">
        <ele>1666.08</ele>
        <time>2020-03-19T17:04:04Z</time>
      </trkpt>
      <trkpt lat="42.41524" lon="8.90486">
        <ele>1673.834</ele>
        <time>2020-03-19T17:04:24Z</time>
      </trkpt>
      <trkpt lat="42.41514" lon="8.90498">
        <ele>1683.157</ele>
        <time>2020-03-19T17:04:44Z</time>
      </trkpt>
      <trkpt lat="42.41504" lon="8.905">
        <ele>1689.333</ele>
        <time>2020-03-19T17:05:04Z</time>
      </trkpt>
      <trkpt lat="42.41506" lon="8.90513">
        <ele>1693.661</ele>
        <time>2020-03-19T17:05:24Z</time>
      </trkpt>
      <trkpt lat="42.41493" lon="8.90523">
        <ele>1704.321</ele>
        <time>2020-03-19T17:05:44Z</time>
      </trkpt>
      <trkpt lat="42.4148" lon="8.90542">
        <ele>1717.313</ele>
        <time>2020-03-19T17:06:04Z</time>
      </trkpt>
      <trkpt lat="42.41456" lon="8.90541">
        <ele>1722.308</ele>
        <time>2020-03-19T17:06:24Z</time>
      </trkpt>
      <trkpt lat="42.4145" lon="8.90555">
        <ele>1726.52</ele>
        <time>2020-03-19T17:06:44Z</time>
      </trkpt>
      <trkpt lat="42.4144" lon="8.90554">
        <ele>1729.153</ele>
        <time>2020-03-19T17:07:04Z</time>
      </trkpt>
      <trkpt lat="42.41439" lon="8.90568">
        <ele>1734.235</ele>
        <time>2020-03-19T17:07:24Z</time>
      </trkpt>
      <trkpt lat="42.41428" lon="8.90574">
        <ele>1742.613</ele>
        <time>2020-03-19T17:07:44Z</time>
      </trkpt>
      <trkpt lat="42.41428" lon="8.90604">
        <ele>1756.577</ele>
        <time>2020-03-19T17:08:04Z</time>
      </trkpt>
      <trkpt lat="42.41419" lon="8.90607">
        <ele>1762.761</ele>
        <time>2020-03-19T17:08:24Z</time>
      </trkpt>
      <trkpt lat="42.41422" lon="8.90628">
        <ele>1768.524</ele>
        <time>2020-03-19T17:08:44Z</time>
      </trkpt>
      <trkpt lat="42.41407" lon="8.90628">
        <ele>1774.09</ele>
        <time>2020-03-19T17:09:04Z</time>
      </trkpt>
      <trkpt lat="42.41399" lon="8.90619">
        <ele>1773.232</ele>
        <time>2020-03-19T17:09:24Z</time>
      </trkpt>
      <trkpt lat="42.41391" lon="8.90629">
        <ele>1779.592</ele>
        <time>2020-03-19T17:09:44Z</time>
      </trkpt>
      <trkpt lat="42.41392" lon="8.90639">
        <ele>1783.111</ele>
        <time>2020-03-19T17:10:04Z</time>
      </trkpt>
      <trkpt lat="42.41388" lon="8.90646">
        <ele>1786.008</ele>
        <time>2020-03-19T17:10:24Z</time>
      </trkpt>
      <trkpt lat="42.41389" lon="8.90655">
        <ele>1788.157</ele>
        <time>2020-03-19T17:10:44Z</time>
      </trkpt>
      <trkpt lat="42.4141" lon="8.90662">
        <ele>1782.46</ele>
        <time>2020-03-19T17:11:04Z</time>
      </trkpt>
      <trkpt lat="42.41408" lon="8.90673">
        <ele>1785.942</ele>
        <time>2020-03-19T17:11:24Z</time>
      </trkpt>
      <trkpt lat="42.41395" lon="8.90679">
        <ele>1792.71</ele>
        <time>2020-03-19T17:11:44Z</time>
      </trkpt>
      <trkpt lat="42.41384" lon="8.90705">
        <ele>1806.314</ele>
        <time>2020-03-19T17:12:04Z</time>
      </trkpt>
      <trkpt lat="42.41365" lon="8.90705">
        <ele>1815.058</ele>
        <time>2020-03-19T17:12:24Z</time>
      </trkpt>
      <trkpt lat="42.41354" lon="8.907">
        <ele>1817.211</ele>
        <time>2020-03-19T17:12:44Z</time>
      </trkpt>
      <trkpt lat="42.41345" lon="8.90711">
        <ele>1825.637</ele>
        <time>2020-03-19T17:13:04Z</time>
      </trkpt>
      <trkpt lat="42.41364" lon="8.90726">
        <ele>1824.323</ele>
        <time>2020-03-19T17:13:24Z</time>
      </trkpt>
      <trkpt lat="42.4136" lon="8.90742">
        <ele>1832.083</ele>
        <time>2020-03-19T17:13:44Z</time>
      </trkpt>
      <trkpt lat="42.41371" lon="8.90751">
        <ele>1830.611</ele>
        <time>2020-03-19T17:14:04Z</time>
      </trkpt>
      <trkpt lat="42.41377" lon="8.90783">
        <ele>1837.508</ele>
        <time>2020-03-19T17:14:24Z</time>
      </trkpt>
      <trkpt lat="42.4136" lon="8.90801">
        <ele>1843.696</ele>
        <time>2020-03-19T17:14:44Z</time>
      </trkpt>
      <trkpt lat="42.41355" lon="8.90811">
        <ele>1846.329</ele>
        <time>2020-03-19T17:15:04Z</time>
      </trkpt>
      <trkpt lat="42.41346" lon="8.90805">
        <ele>1848.721</ele>
        <time>2020-03-19T17:15:24Z</time>
      </trkpt>
      <trkpt lat="42.41331" lon="8.90816">
        <ele>1854.069</ele>
        <time>2020-03-19T17:15:44Z</time>
      </trkpt>
      <trkpt lat="42.41294" lon="8.90788">
        <ele>1864.173</ele>
        <time>2020-03-19T17:16:04Z</time>
      </trkpt>
      <trkpt lat="42.41276" lon="8.90791">
        <ele>1866.167</ele>
        <time>2020-03-19T17:16:24Z</time>
      </trkpt>
      <trkpt lat="42.41252" lon="8.90782">
        <ele>1868.17</ele>
        <time>2020-03-19T17:16:44Z</time>
      </trkpt>
      <trkpt lat="42.41244" lon="8.90774">
        <ele>1870.936</ele>
        <time>2020-03-19T17:17:04Z</time>
      </trkpt>
      <trkpt lat="42.41235" lon="8.90779">
        <ele>1872.622</ele>
        <time>2020-03-19T17:17:24Z</time>
      </trkpt>
      <trkpt lat="42.41234" lon="8.90788">
        <ele>1872.162</ele>
        <time>2020-03-19T17:17:44Z</time>
      </trkpt>
      <trkpt lat="42.41223" lon="8.90785">
        <ele>1875.508</ele>
        <time>2020-03-19T17:18:04Z</time>
      </trkpt>
      <trkpt lat="42.41202" lon="8.90815">
        <ele>1893.908</ele>
        <time>2020-03-19T17:18:24Z</time>
      </trkpt>
      <trkpt lat="42.4119" lon="8.9082">
        <ele>1902.436</ele>
        <time>2020-03-19T17:18:44Z</time>
      </trkpt>
      <trkpt lat="42.41184" lon="8.90836">
        <ele>1906.659</ele>
        <time>2020-03-19T17:19:04Z</time>
      </trkpt>
      <trkpt lat="42.41169" lon="8.90832">
        <ele>1909.581</ele>
        <time>2020-03-19T17:19:24Z</time>
      </trkpt>
      <trkpt lat="42.41131" lon="8.9084">
        <ele>1936.819</ele>
        <time>2020-03-19T17:19:44Z</time>
      </trkpt>
      <trkpt lat="42.41123" lon="8.9085">
        <ele>1950.233</ele>
        <time>2020-03-19T17:20:04Z</time>
      </trkpt>
      <trkpt lat="42.41107" lon="8.90848">
        <ele>1964.937</ele>
        <time>2020-03-19T17:20:24Z</time>
      </trkpt>
      <trkpt lat="42.41104" lon="8.90861">
        <ele>1973.39</ele>
        <time>2020-03-19T17:20:44Z</time>
      </trkpt>
      <trkpt lat="42.41095" lon="8.90861">
        <ele>1976.626</ele>
        <time>2020-03-19T17:21:04Z</time>
      </trkpt>
      <trkpt lat="42.41075" lon="8.90839">
        <ele>1979.543</ele>
        <time>2020-03-19T17:21:24Z</time>
      </trkpt>
      <trkpt lat="42.41066" lon="8.9084">
        <ele>1980.664</ele>
        <time>2020-03-19T17:21:44Z</time>
      </trkpt>
      <trkpt lat="42.41055" lon="8.90831">
        <ele>1979.01</ele>
        <time>2020-03-19T17:22:04Z</time>
      </trkpt>
      <trkpt lat="42.41043" lon="8.90826">
        <ele>1972.308</ele>
        <time>2020-03-19T17:22:24Z</time>
      </trkpt>
      <trkpt lat="42.41036" lon="8.90801">
        <ele>1961.758</ele>
        <time>2020-03-19T17:22:44Z</time>
      </trkpt>
      <trkpt lat="42.4106" lon="8.90761">
        <ele>1964.981</ele>
        <time>2020-03-19T17:23:04Z</time>
      </trkpt>
      <trkpt lat="42.41037" lon="8.90761">
        <ele>1952.333</ele>
        <time>2020-03-19T17:23:24Z</time>
      </trkpt>
      <trkpt lat="42.41031" lon="8.90771">
        <ele>1950.261</ele>
        <time>2020-03-19T17:23:44Z</time>
      </trkpt>
      <trkpt lat="42.41015" lon="8.90771">
        <ele>1942.435</ele>
        <time>2020-03-19T17:24:04Z</time>
      </trkpt>
      <trkpt lat="42.41012" lon="8.90786">
        <ele>1946.149</ele>
        <time>2020-03-19T17:24:24Z</time>
      </trkpt>
      <trkpt lat="42.41007" lon="8.90787">
        <ele>1944.872</ele>
        <time>2020-03-19T17:24:44Z</time>
      </trkpt>
      <trkpt lat="42.41002" lon="8.90797">
        <ele>1947.298</ele>
        <time>2020-03-19T17:25:04Z</time>
      </trkpt>
      <trkpt lat="42.40983" lon="8.90801">
        <ele>1945.093</ele>
        <time>2020-03-19T17:25:24Z</time>
      </trkpt>
      <trkpt lat="42.40979" lon="8.90814">
        <ele>1949.565</ele>
        <time>2020-03-19T17:25:44Z</time>
      </trkpt>
      <trkpt lat="42.40969" lon="8.9082">
        <ele>1948.021</ele>
        <time>2020-03-19T17:26:04Z</time>
      </trkpt>
      <trkpt lat="42.4096" lon="8.90837">
        <ele>1947.108</ele>
        <time>2020-03-19T17:26:24Z</time>
      </trkpt>
      <trkpt lat="42.40936" lon="8.90841">
        <ele>1931.283</ele>
        <time>2020-03-19T17:26:44Z</time>
      </trkpt>
      <trkpt lat="42.40928" lon="8.90853">
        <ele>1934.146</ele>
        <time>2020-03-19T17:27:04Z</time>
      </trkpt>
      <trkpt lat="42.40898" lon="8.90859">
        <ele>1919.538</ele>
        <time>2020-03-19T17:27:24Z</time>
      </trkpt>
      <trkpt lat="42.40883" lon="8.90877">
        <ele>1925.156</ele>
        <time>2020-03-19T17:27:44Z</time>
      </trkpt>
      <trkpt lat="42.40867" lon="8.90886">
        <ele>1927.68</ele>
        <time>2020-03-19T17:28:04Z</time>
      </trkpt>
      <trkpt lat="42.40855" lon="8.90921">
        <ele>1940.514</ele>
        <time>2020-03-19T17:28:24Z</time>
      </trkpt>
      <trkpt lat="42.40845" lon="8.90931">
        <ele>1943.297</ele>
        <time>2020-03-19T17:28:44Z</time>
      </trkpt>
      <trkpt lat="42.40836" lon="8.90947">
        <ele>1951.223</ele>
        <time>2020-03-19T17:29:04Z</time>
      </trkpt>
      <trkpt lat="42.40826" lon="8.90949">
        <ele>1948.282</ele>
        <time>2020-03-19T17:29:24Z</time>
      </trkpt>
      <trkpt lat="42.40821" lon="8.90956">
        <ele>1951.743</ele>
        <time>2020-03-19T17:29:44Z</time>
      </trkpt>
      <trkpt lat="42.40822" lon="8.90973">
        <ele>1965.017</ele>
        <time>2020-03-19T17:30:04Z</time>
      </trkpt>
      <trkpt lat="42.40805" lon="8.90998">
        <ele>1981.708</ele>
        <time>2020-03-19T17:30:24Z</time>
      </trkpt>
      <trkpt lat="42.40787" lon="8.91008">
        <ele>1979.712</ele>
        <time>2020-03-19T17:30:44Z</time>
      </trkpt>
      <trkpt lat="42.40782" lon="8.91022">
        <ele>1985.145</ele>
        <time>2020-03-19T17:31:04Z</time>
      </trkpt>
      <trkpt lat="42.40767" lon="8.91033">
        <ele>1986.447</ele>
        <time>2020-03-19T17:31:24Z</time>
      </trkpt>
      <trkpt lat="42.40759" lon="8.91066">
        <ele>1992.025</ele>
        <time>2020-03-19T17:31:44Z</time>
      </trkpt>
      <trkpt lat="42.40752" lon="8.91072">
        <ele>1989.999</ele>
        <time>2020-03-19T17:32:04Z</time>
      </trkpt>
      <trkpt lat="42.40746" lon="8.91071">
        <ele>1987.593</ele>
        <time>2020-03-19T17:32:24Z</time>
      </trkpt>
      <trkpt lat="42.40737" lon="8.91074">
        <ele>1984.286</ele>
        <time>2020-03-19T17:32:44Z</time>
      </trkpt>
      <trkpt lat="42.40736" lon="8.91085">
        <ele>1983.122</ele>
        <time>2020-03-19T17:33:04Z</time>
      </trkpt>
      <trkpt lat="42.40719" lon="8.91087">
        <ele>1974.944</ele>
        <time>2020-03-19T17:33:24Z</time>
      </trkpt>
      <trkpt lat="42.40709" lon="8.91083">
        <ele>1972.005</ele>
        <time>2020-03-19T17:33:44Z</time>
      </trkpt>
      <trkpt lat="42.40689" lon="8.9109">
        <ele>1962.015</ele>
        <time>2020-03-19T17:34:04Z</time>
      </trkpt>
      <trkpt lat="42.40687" lon="8.91107">
        <ele>1955.508</ele>
        <time>2020-03-19T17:34:24Z</time>
      </trkpt>
      <trkpt lat="42.40697" lon="8.91117">
        <ele>1958.818</ele>
        <time>2020-03-19T17:34:44Z</time>
      </trkpt>
      <trkpt lat="42.40695" lon="8.91131">
        <ele>1950.611</ele>
        <time>2020-03-19T17:35:04Z</time>
      </trkpt>
      <trkpt lat="42.40704" lon="8.91146">
        <ele>1950.093</ele>
        <time>2020-03-19T17:35:24Z</time>
      </trkpt>
      <trkpt lat="42.40702" lon="8.91155">
        <ele>1946.141</ele>
        <time>2020-03-19T17:35:44Z</time>
      </trkpt>
      <trkpt lat="42.40695" lon="8.91157">
        <ele>1941.555</ele>
        <time>2020-03-19T17:36:04Z</time>
      </trkpt>
      <trkpt lat="42.40697" lon="8.91166">
        <ele>1940.699</ele>
        <time>2020-03-19T17:36:24Z</time>
      </trkpt>
      <trkpt lat="42.40681" lon="8.91165">
        <ele>1930.852</ele>
        <time>2020-03-19T17:36:44Z</time>
      </trkpt>
      <trkpt lat="42.40671" lon="8.9117">
        <ele>1922.568</ele>
        <time>2020-03-19T17:37:04Z</time>
      </trkpt>
      <trkpt lat="42.40674" lon="8.91181">
        <ele>1919.379</ele>
        <time>2020-03-19T17:37:24Z</time>
      </trkpt>
      <trkpt lat="42.40682" lon="8.91184">
        <ele>1924.005</ele>
        <time>2020-03-19T17:37:44Z</time>
      </trkpt>
      <trkpt lat="42.40676" lon="8.91194">
        <ele>1915.225</ele>
        <time>2020-03-19T17:38:04Z</time>
      </trkpt>
      <trkpt lat="42.40685" lon="8.91198">
        <ele>1920.608</ele>
        <time>2020-03-19T17:38:24Z</time>
      </trkpt>
      <trkpt lat="42.40686" lon="8.91207">
        <ele>1918.831</ele>
        <time>2020-03-19T17:38:44Z</time>
      </trkpt>
      <trkpt lat="42.40681" lon="8.91212">
        <ele>1912.744</ele>
        <time>2020-03-19T17:39:04Z</time>
      </trkpt>
      <trkpt lat="42.40669" lon="8.91208">
        <ele>1904.486</ele>
        <time>2020-03-19T17:39:24Z</time>
      </trkpt>
      <trkpt lat="42.40675" lon="8.91218">
        <ele>1906.074</ele>
        <time>2020-03-19T17:39:44Z</time>
      </trkpt>
      <trkpt lat="42.40662" lon="8.91224">
        <ele>1893.728</ele>
        <time>2020-03-19T17:40:04Z</time>
      </trkpt>
      <trkpt lat="42.40668" lon="8.91236">
        <ele>1892.962</ele>
        <time>2020-03-19T17:40:24Z</time>
      </trkpt>
      <trkpt lat="42.40662" lon="8.91241">
        <ele>1886.775</ele>
        <time>2020-03-19T17:40:44Z</time>
      </trkpt>
      <trkpt lat="42.40667" lon="8.91257">
        <ele>1883.381</ele>
        <time>2020-03-19T17:41:04Z</time>
      </trkpt>
      <trkpt lat="42.40662" lon="8.91269">
        <ele>1872.988</ele>
        <time>2020-03-19T17:41:24Z</time>
      </trkpt>
      <trkpt lat="42.40674" lon="8.9128">
        <ele>1875.824</ele>
        <time>2020-03-19T17:41:44Z</time>
      </trkpt>
      <trkpt lat="42.40669" lon="8.91296">
        <ele>1854.526</ele>
        <time>2020-03-19T17:42:04Z</time>
      </trkpt>
      <trkpt lat="42.40673" lon="8.913">
        <ele>1854.108</ele>
        <time>2020-03-19T17:42:24Z</time>
      </trkpt>
      <trkpt lat="42.40666" lon="8.91312">
        <ele>1834.392</ele>
        <time>2020-03-19T17:42:44Z</time>
      </trkpt>
      <trkpt lat="42.40678" lon="8.91319">
        <ele>1840.835</ele>
        <time>2020-03-19T17:43:04Z</time>
      </trkpt>
      <trkpt lat="42.40696" lon="8.91383">
        <ele>1816.157</ele>
        <time>2020-03-19T17:43:24Z</time>
      </trkpt>
      <trkpt lat="42.40681" lon="8.9138">
        <ele>1809.235</ele>
        <time>2020-03-19T17:43:44Z</time>
      </trkpt>
      <trkpt lat="42.40676" lon="8.91404">
        <ele>1795.579</ele>
        <time>2020-03-19T17:44:04Z</time>
      </trkpt>
      <trkpt lat="42.40661" lon="8.91401">
        <ele>1792.383</ele>
        <time>2020-03-19T17:44:24Z</time>
      </trkpt>
      <trkpt lat="42.40656" lon="8.91417">
        <ele>1784.166</ele>
        <time>2020-03-19T17:44:44Z</time>
      </trkpt>
      <trkpt lat="42.40647" lon="8.91423">
        <ele>1778.422</ele>
        <time>2020-03-19T17:45:04Z</time>
      </trkpt>
      <trkpt lat="42.40643" lon="8.91431">
        <ele>1772.133</ele>
        <time>2020-03-19T17:45:24Z</time>
      </trkpt>
      <trkpt lat="42.40618" lon="8.9143">
        <ele>1771.223</ele>
        <time>2020-03-19T17:45:44Z</time>
      </trkpt>
      <trkpt lat="42.40602" lon="8.91403">
        <ele>1798.415</ele>
        <time>2020-03-19T17:46:04Z</time>
      </trkpt>
      <trkpt lat="42.40596" lon="8.91408">
        <ele>1794.308</ele>
        <time>2020-03-19T17:46:24Z</time>
      </trkpt>
      <trkpt lat="42.40593" lon="8.91404">
        <ele>1802.757</ele>
        <time>2020-03-19T17:46:44Z</time>
      </trkpt>
      <trkpt lat="42.40587" lon="8.91418">
        <ele>1778.51</ele>
        <time>2020-03-19T17:47:04Z</time>
      </trkpt>
      <trkpt lat="42.40579" lon="8.91462">
        <ele>1745.862</ele>
        <time>2020-03-19T17:47:24Z</time>
      </trkpt>
      <trkpt lat="42.4058" lon="8.91475">
        <ele>1737.65</ele>
        <time>2020-03-19T17:47:44Z</time>
      </trkpt>
      <trkpt lat="42.40574" lon="8.91485">
        <ele>1739.064</ele>
        <time>2020-03-19T17:48:04Z</time>
      </trkpt>
      <trkpt lat="42.40568" lon="8.91508">
        <ele>1735.158</ele>
        <time>2020-03-19T17:48:24Z</time>
      </trkpt>
      <trkpt lat="42.40571" lon="8.91518">
        <ele>1726.641</ele>
        <time>2020-03-19T17:48:44Z</time>
      </trkpt>
      <trkpt lat="42.40565" lon="8.91523">
        <ele>1729.087</ele>
        <time>2020-03-19T17:49:04Z</time>
      </trkpt>
      <trkpt lat="42.40571" lon="8.9153">
        <ele>1719.391</ele>
        <time>2020-03-19T17:49:24Z</time>
      </trkpt>
      <trkpt lat="42.4055" lon="8.91563">
        <ele>1725.181</ele>
        <time>2020-03-19T17:49:44Z</time>
      </trkpt>
      <trkpt lat="42.40554" lon="8.91566">
        <ele>1721.019</ele>
        <time>2020-03-19T17:50:04Z</time>
      </trkpt>
      <trkpt lat="42.4055" lon="8.91589">
        <ele>1714.708</ele>
        <time>2020-03-19T17:50:24Z</time>
      </trkpt>
      <trkpt lat="42.40541" lon="8.91597">
        <ele>1711.823</ele>
        <time>2020-03-19T17:50:44Z</time>
      </trkpt>
      <trkpt lat="42.40538" lon="8.91629">
        <ele>1664.116</ele>
        <time>2020-03-19T17:51:04Z</time>
      </trkpt>
      <trkpt lat="42.40525" lon="8.91654">
        <ele>1663.248</ele>
        <time>2020-03-19T17:51:24Z</time>
      </trkpt>
      <trkpt lat="42.40516" lon="8.91655">
        <ele>1675.196</ele>
        <time>2020-03-19T17:51:44Z</time>
      </trkpt>
      <trkpt lat="42.40514" lon="8.9167">
        <ele>1675.84</ele>
        <time>2020-03-19T17:52:04Z</time>
      </trkpt>
      <trkpt lat="42.40519" lon="8.91683">
        <ele>1656.954</ele>
        <time>2020-03-19T17:52:24Z</time>
      </trkpt>
      <trkpt lat="42.40513" lon="8.917">
        <ele>1649.837</ele>
        <time>2020-03-19T17:52:44Z</time>
      </trkpt>
      <trkpt lat="42.40515" lon="8.91706">
        <ele>1646.143</ele>
        <time>2020-03-19T17:53:04Z</time>
      </trkpt>
      <trkpt lat="42.40504" lon="8.91734">
        <ele>1638.134</ele>
        <time>2020-03-19T17:53:24Z</time>
      </trkpt>
      <trkpt lat="42.40502" lon="8.91759">
        <ele>1626.855</ele>
        <time>2020-03-19T17:53:44Z</time>
      </trkpt>
      <trkpt lat="42.40499" lon="8.91765">
        <ele>1625.11</ele>
        <time>2020-03-19T17:54:04Z</time>
      </trkpt>
      <trkpt lat="42.405" lon="8.91776">
        <ele>1620.908</ele>
        <time>2020-03-19T17:54:24Z</time>
      </trkpt>
      <trkpt lat="42.40495" lon="8.91781">
        <ele>1618.417</ele>
        <time>2020-03-19T17:54:44Z</time>
      </trkpt>
      <trkpt lat="42.40499" lon="8.91787">
        <ele>1614.94</ele>
        <time>2020-03-19T17:55:04Z</time>
      </trkpt>
      <trkpt lat="42.40481" lon="8.91796">
        <ele>1612.282</ele>
        <time>2020-03-19T17:55:24Z</time>
      </trkpt>
      <trkpt lat="42.40482" lon="8.91806">
        <ele>1608.31</ele>
        <time>2020-03-19T17:55:44Z</time>
      </trkpt>
      <trkpt lat="42.40472" lon="8.91806">
        <ele>1609.784</ele>
        <time>2020-03-19T17:56:04Z</time>
      </trkpt>
      <trkpt lat="42.40469" lon="8.9182">
        <ele>1602.028</ele>
        <time>2020-03-19T17:56:24Z</time>
      </trkpt>
      <trkpt lat="42.40456" lon="8.91821">
        <ele>1601.131</ele>
        <time>2020-03-19T17:56:44Z</time>
      </trkpt>
      <trkpt lat="42.40461" lon="8.91839">
        <ele>1591.827</ele>
        <time>2020-03-19T17:57:04Z</time>
      </trkpt>
      <trkpt lat="42.40451" lon="8.91846">
        <ele>1587.756</ele>
        <time>2020-03-19T17:57:24Z</time>
      </trkpt>
      <trkpt lat="42.40437" lon="8.91848">
        <ele>1586.859</ele>
        <time>2020-03-19T17:57:44Z</time>
      </trkpt>
      <trkpt lat="42.40434" lon="8.91857">
        <ele>1581.614</ele>
        <time>2020-03-19T17:58:04Z</time>
      </trkpt>
      <trkpt lat="42.40425" lon="8.91863">
        <ele>1578.108</ele>
        <time>2020-03-19T17:58:24Z</time>
      </trkpt>
      <trkpt lat="42.40432" lon="8.91875">
        <ele>1575.319</ele>
        <time>2020-03-19T17:58:44Z</time>
      </trkpt>
      <trkpt lat="42.40432" lon="8.91884">
        <ele>1572.872</ele>
        <time>2020-03-19T17:59:04Z</time>
      </trkpt>
      <trkpt lat="42.40424" lon="8.91891">
        <ele>1570.374</ele>
        <time>2020-03-19T17:59:24Z</time>
      </trkpt>
      <trkpt lat="42.4043" lon="8.91909">
        <ele>1563.112</ele>
        <time>2020-03-19T17:59:44Z</time>
      </trkpt>
      <trkpt lat="42.40427" lon="8.91948">
        <ele>1549.776</ele>
        <time>2020-03-19T18:00:04Z</time>
      </trkpt>
      <trkpt lat="42.40424" lon="8.91957">
        <ele>1549.85</ele>
        <time>2020-03-19T18:00:24Z</time>
      </trkpt>
      <trkpt lat="42.4043" lon="8.91975">
        <ele>1545.713</ele>
        <time>2020-03-19T18:00:44Z</time>
      </trkpt>
      <trkpt lat="42.40436" lon="8.91977">
        <ele>1543.069</ele>
        <time>2020-03-19T18:01:04Z</time>
      </trkpt>
      <trkpt lat="42.40438" lon="8.91989">
        <ele>1539.561</ele>
        <time>2020-03-19T18:01:24Z</time>
      </trkpt>
      <trkpt lat="42.40434" lon="8.92001">
        <ele>1537.521</ele>
        <time>2020-03-19T18:01:44Z</time>
      </trkpt>
      <trkpt lat="42.40438" lon="8.92017">
        <ele>1531.013</ele>
        <time>2020-03-19T18:02:04Z</time>
      </trkpt>
      <trkpt lat="42.40447" lon="8.92021">
        <ele>1528.308</ele>
        <time>2020-03-19T18:02:24Z</time>
      </trkpt>
      <trkpt lat="42.40445" lon="8.92033">
        <ele>1525.15</ele>
        <time>2020-03-19T18:02:44Z</time>
      </trkpt>
      <trkpt lat="42.40446" lon="8.92043">
        <ele>1521.323</ele>
        <time>2020-03-19T18:03:04Z</time>
      </trkpt>
      <trkpt lat="42.40439" lon="8.92056">
        <ele>1517.215</ele>
        <time>2020-03-19T18:03:24Z</time>
      </trkpt>
      <trkpt lat="42.40442" lon="8.92069">
        <ele>1510.493</ele>
        <time>2020-03-19T18:03:44Z</time>
      </trkpt>
      <trkpt lat="42.40435" lon="8.92081">
        <ele>1505.017</ele>
        <time>2020-03-19T18:04:04Z</time>
      </trkpt>
      <trkpt lat="42.40425" lon="8.92078">
        <ele>1507.321</ele>
        <time>2020-03-19T18:04:24Z</time>
      </trkpt>
      <trkpt lat="42.40422" lon="8.92084">
        <ele>1504.444</ele>
        <time>2020-03-19T18:04:44Z</time>
      </trkpt>
      <trkpt lat="42.40407" lon="8.92079">
        <ele>1503.85</ele>
        <time>2020-03-19T18:05:04Z</time>
      </trkpt>
      <trkpt lat="42.4041" lon="8.92094">
        <ele>1497.685</ele>
        <time>2020-03-19T18:05:24Z</time>
      </trkpt>
      <trkpt lat="42.40402" lon="8.921">
        <ele>1492.289</ele>
        <time>2020-03-19T18:05:44Z</time>
      </trkpt>
      <trkpt lat="42.40396" lon="8.92097">
        <ele>1491.217</ele>
        <time>2020-03-19T18:06:04Z</time>
      </trkpt>
      <trkpt lat="42.40373" lon="8.92105">
        <ele>1481.508</ele>
        <time>2020-03-19T18:06:24Z</time>
      </trkpt>
      <trkpt lat="42.40345" lon="8.92109">
        <ele>1474.782</ele>
        <time>2020-03-19T18:06:44Z</time>
      </trkpt>
      <trkpt lat="42.40331" lon="8.92107">
        <ele>1473.195</ele>
        <time>2020-03-19T18:07:04Z</time>
      </trkpt>
      <trkpt lat="42.40315" lon="8.92112">
        <ele>1469.297</ele>
        <time>2020-03-19T18:07:24Z</time>
      </trkpt>
      <trkpt lat="42.40305" lon="8.92123">
        <ele>1464.255</ele>
        <time>2020-03-19T18:07:44Z</time>
      </trkpt>
      <trkpt lat="42.40305" lon="8.92142">
        <ele>1457.919</ele>
        <time>2020-03-19T18:08:04Z</time>
      </trkpt>
      <trkpt lat="42.40324" lon="8.92165">
        <ele>1451.173</ele>
        <time>2020-03-19T18:08:24Z</time>
      </trkpt>
      <trkpt lat="42.40335" lon="8.92192">
        <ele>1439.456</ele>
        <time>2020-03-19T18:08:44Z</time>
      </trkpt>
      <trkpt lat="42.40335" lon="8.922">
        <ele>1437.422</ele>
        <time>2020-03-19T18:09:04Z</time>
      </trkpt>
      <trkpt lat="42.40344" lon="8.92208">
        <ele>1437.471</ele>
        <time>2020-03-19T18:09:24Z</time>
      </trkpt>
      <trkpt lat="42.40339" lon="8.9223">
        <ele>1431.341</ele>
        <time>2020-03-19T18:09:44Z</time>
      </trkpt>
    </trkseg>
  </trk>
</gpx>